Česky Dansk Deutsch English Español Suomi Français Magyar Italiano Nederlands norsk Polski Português svenska Türkçe

 

Het Weer

Pucallpa (Peru)

02:00, 19 juli 2016 (GMT)

 
WE
 
Home            
Pucallpa Tingo Maria Huanuco Cruzeiro Do Sul Juanjui Atalaya Tarapoto Yurimaguas Anta Huaraz Rioja Tarauaca Chachapoyas Chimbote Cajamarca Lima-Callao / Aerop. Internacional Jorgechavez Trujillo Ayacucho Iquitos Chiclayo Andahuayla Pisco Cuzco Benjamin Constant

Om een weerknop op uw website of weblog te plaatsen, copieer onderstaande code en plak die in uw pagina. In het eerste vakje staat HTML-code, in het tweede vakje UBB-code.


Add to Google

Details

Wind speed:2 bf, 4 kn, 2.1 m/s, 4.6 miles/h, 7.4 km/h
Wind direction:S, 180°
Visibility:Greater than 10000 m, 10 km, 32800 ft, 6.2 miles
Clouds:Ein wenig bewölkt at 1500 ft, 457 m
Temperature:25°C, 77°F
Gefühlte Temperatur:26°C, 78°F
Dew-point:22°C, 72°F
Atmospheric pressure:1015 hPa, 761.3 mmHg, 29.97 inHg, 1.002 atm
Relative humidity:83.5 %
METAR:SPCL 190200Z 18004KT 9999 FEW015 25/22 Q1015 RMK PP000

Snelkoppelingen

Actuele weersinformatie van de hele wereld. Voeg locaties toe met het plus (+) symbool. Deze snelkoppelingen kunnen worden toegevoegd aan Google.

Lid van de Technetium groep

website free tracking
StatCounter NetStat W3C Validator

20-07-2017 06:32:06
astro.technetium.be money.technetium.be phote.technetium.be tafeltennistafel.technetium.be www.ligfiets.net